createdAt,value
2023-02-08T00:00:31.834Z,-1.90
2023-02-08T00:01:31.840Z,-1.94
2023-02-08T00:02:31.837Z,-1.94
2023-02-08T00:03:31.830Z,-1.95
2023-02-08T00:04:31.811Z,-1.97
2023-02-08T00:05:31.764Z,-1.98
2023-02-08T00:06:31.763Z,-1.98
2023-02-08T00:07:31.745Z,-2.00
2023-02-08T00:08:31.746Z,-2.00
2023-02-08T00:09:31.744Z,-2.00
2023-02-08T00:10:31.740Z,-2.00
2023-02-08T00:11:31.710Z,-1.98
2023-02-08T00:12:31.719Z,-1.98
2023-02-08T00:13:31.677Z,-2.00
2023-02-08T00:14:31.696Z,-2.01
2023-02-08T00:15:31.661Z,-2.00
2023-02-08T00:16:31.660Z,-2.01
2023-02-08T00:17:31.638Z,-2.01
2023-02-08T00:18:31.627Z,-2.00
2023-02-08T00:19:31.616Z,-2.00
2023-02-08T00:20:31.628Z,-2.01
2023-02-08T00:21:31.586Z,-2.01
2023-02-08T00:22:31.587Z,-2.01
2023-02-08T00:23:31.566Z,-2.01
2023-02-08T00:24:31.574Z,-2.01
2023-02-08T00:25:31.548Z,-2.02
2023-02-08T00:26:31.535Z,-2.04
2023-02-08T00:27:31.538Z,-2.04
2023-02-08T00:28:31.550Z,-2.04
2023-02-08T00:29:31.535Z,-2.05
2023-02-08T00:30:31.518Z,-2.07
2023-02-08T00:31:31.541Z,-2.07
2023-02-08T00:32:31.511Z,-2.08
2023-02-08T00:33:31.453Z,-2.07
2023-02-08T00:34:31.465Z,-2.08
2023-02-08T00:35:31.431Z,-2.08
2023-02-08T00:36:31.453Z,-2.10
2023-02-08T00:37:31.422Z,-2.08
2023-02-08T00:38:31.397Z,-2.08
2023-02-08T00:39:31.393Z,-2.10
2023-02-08T00:40:32.078Z,-2.12
2023-02-08T00:41:31.372Z,-2.12
2023-02-08T00:42:31.370Z,-2.12
2023-02-08T00:43:31.337Z,-2.10
2023-02-08T00:44:31.339Z,-2.08
2023-02-08T00:45:31.341Z,-2.08
2023-02-08T00:46:31.434Z,-2.10
2023-02-08T00:47:31.304Z,-2.08
2023-02-08T00:48:31.297Z,-2.12
2023-02-08T00:49:31.279Z,-2.08
2023-02-08T00:50:31.310Z,-2.12
2023-02-08T00:51:31.481Z,-2.12
2023-02-08T00:52:31.278Z,-2.13
2023-02-08T00:53:31.239Z,-2.12
2023-02-08T00:54:31.236Z,-2.12
2023-02-08T00:55:31.204Z,-2.12
2023-02-08T00:56:31.216Z,-2.15
2023-02-08T00:57:31.193Z,-2.16
2023-02-08T00:58:31.192Z,-2.15
2023-02-08T00:59:31.164Z,-2.13
2023-02-08T01:00:31.511Z,-2.15
2023-02-08T01:01:31.165Z,-2.13
2023-02-08T01:02:31.156Z,-2.15
2023-02-08T01:03:31.130Z,-2.16
2023-02-08T01:04:31.130Z,-2.16
2023-02-08T01:05:31.117Z,-2.15
2023-02-08T01:06:31.097Z,-2.15
2023-02-08T01:07:31.099Z,-2.15
2023-02-08T01:08:31.108Z,-2.13
2023-02-08T01:09:31.056Z,-2.13
2023-02-08T01:10:31.082Z,-2.13
2023-02-08T01:11:31.114Z,-2.12
2023-02-08T01:12:31.046Z,-2.12
2023-02-08T01:13:31.013Z,-2.10
2023-02-08T01:14:31.005Z,-2.10
2023-02-08T01:15:30.993Z,-2.10
2023-02-08T01:16:31.043Z,-2.08
2023-02-08T01:17:30.965Z,-2.08
2023-02-08T01:18:30.973Z,-2.10
2023-02-08T01:19:30.954Z,-2.10
2023-02-08T01:20:30.958Z,-2.10
2023-02-08T01:21:30.931Z,-2.10
2023-02-08T01:22:30.934Z,-2.12
2023-02-08T01:23:30.910Z,-2.12
2023-02-08T01:24:30.913Z,-2.12
2023-02-08T01:25:30.889Z,-2.12
2023-02-08T01:26:30.874Z,-2.12
2023-02-08T01:27:30.853Z,-2.13
2023-02-08T01:28:30.853Z,-2.13
2023-02-08T01:29:30.853Z,-2.13
2023-02-08T01:30:30.889Z,-2.15
2023-02-08T01:31:30.854Z,-2.15
2023-02-08T01:32:30.832Z,-2.16
2023-02-08T01:33:30.801Z,-2.16
2023-02-08T01:34:30.785Z,-2.18
2023-02-08T01:35:30.762Z,-2.18
2023-02-08T01:36:30.764Z,-2.16
2023-02-08T01:37:30.765Z,-2.19
2023-02-08T01:38:30.781Z,-2.19
2023-02-08T01:39:30.764Z,-2.18
2023-02-08T01:40:30.721Z,-2.21
2023-02-08T01:41:30.703Z,-2.21
2023-02-08T01:42:30.713Z,-2.19
2023-02-08T01:43:30.681Z,-2.21
2023-02-08T01:44:30.681Z,-2.22
2023-02-08T01:45:30.704Z,-2.22
2023-02-08T01:46:30.650Z,-2.21
2023-02-08T01:47:30.641Z,-2.23
2023-02-08T01:48:30.648Z,-2.22
2023-02-08T01:49:30.617Z,-2.23
2023-02-08T01:50:30.610Z,-2.23
2023-02-08T01:51:30.589Z,-2.25
2023-02-08T01:52:30.600Z,-2.26
2023-02-08T01:53:30.585Z,-2.25
2023-02-08T01:54:30.591Z,-2.26
2023-02-08T01:55:30.560Z,-2.26
2023-02-08T01:56:30.549Z,-2.28
2023-02-08T01:57:30.552Z,-2.30
2023-02-08T01:58:30.534Z,-2.30
2023-02-08T01:59:30.512Z,-2.34
2023-02-08T02:00:30.578Z,-2.34
2023-02-08T02:01:30.475Z,-2.35
2023-02-08T02:02:30.515Z,-2.34
2023-02-08T02:03:30.457Z,-2.35
2023-02-08T02:04:30.519Z,-2.38
2023-02-08T02:05:30.459Z,-2.35
2023-02-08T02:06:30.432Z,-2.37
2023-02-08T02:07:30.435Z,-2.38
2023-02-08T02:08:30.418Z,-2.37
2023-02-08T02:09:30.397Z,-2.35
2023-02-08T02:10:30.478Z,-2.38
2023-02-08T02:11:30.409Z,-2.37
2023-02-08T02:12:30.494Z,-2.37
2023-02-08T02:13:30.417Z,-2.37
2023-02-08T02:14:30.465Z,-2.40
2023-02-08T02:15:30.566Z,-2.38
2023-02-08T02:16:30.526Z,-2.40
2023-02-08T02:17:30.500Z,-2.38
2023-02-08T02:18:30.523Z,-2.40
2023-02-08T02:19:30.548Z,-2.41
2023-02-08T02:20:30.709Z,-2.41
2023-02-08T02:21:30.499Z,-2.40
2023-02-08T02:22:30.572Z,-2.40
2023-02-08T02:23:30.245Z,-2.38
2023-02-08T02:24:30.230Z,-2.38
2023-02-08T02:25:30.238Z,-2.37
2023-02-08T02:26:30.212Z,-2.37
2023-02-08T02:27:30.185Z,-2.37
2023-02-08T02:28:30.185Z,-2.35
2023-02-08T02:29:30.177Z,-2.35
2023-02-08T02:30:30.232Z,-2.35
2023-02-08T02:31:30.184Z,-2.35
2023-02-08T02:32:30.145Z,-2.35
2023-02-08T02:33:30.126Z,-2.35
2023-02-08T02:34:30.125Z,-2.34
2023-02-08T02:35:30.106Z,-2.37
2023-02-08T02:36:30.122Z,-2.37
2023-02-08T02:37:30.080Z,-2.35
2023-02-08T02:38:30.653Z,-2.37
2023-02-08T02:39:30.102Z,-2.38
2023-02-08T02:40:30.058Z,-2.37
2023-02-08T02:41:30.045Z,-2.37
2023-02-08T02:42:30.032Z,-2.37
2023-02-08T02:43:30.041Z,-2.38
2023-02-08T02:44:30.014Z,-2.38
2023-02-08T02:45:30.014Z,-2.38
2023-02-08T02:46:29.988Z,-2.38
2023-02-08T02:47:30.016Z,-2.41
2023-02-08T02:48:29.969Z,-2.41
2023-02-08T02:49:29.960Z,-2.42
2023-02-08T02:50:29.940Z,-2.41
2023-02-08T02:51:29.937Z,-2.44
2023-02-08T02:52:29.938Z,-2.44
2023-02-08T02:53:29.918Z,-2.44
2023-02-08T02:54:29.910Z,-2.45
2023-02-08T02:55:29.907Z,-2.45
2023-02-08T02:56:29.899Z,-2.44
2023-02-08T02:57:29.868Z,-2.42
2023-02-08T02:58:29.888Z,-2.44
2023-02-08T02:59:29.862Z,-2.45
2023-02-08T03:00:29.828Z,-2.44
2023-02-08T03:01:29.883Z,-2.45
2023-02-08T03:02:29.813Z,-2.47
2023-02-08T03:03:29.812Z,-2.50
2023-02-08T03:04:29.850Z,-2.50
2023-02-08T03:05:29.783Z,-2.52
2023-02-08T03:06:29.768Z,-2.53
2023-02-08T03:07:29.769Z,-2.53
2023-02-08T03:08:29.749Z,-2.53
2023-02-08T03:09:30.518Z,-2.52
2023-02-08T03:10:29.740Z,-2.53
2023-02-08T03:11:29.717Z,-2.53
2023-02-08T03:12:29.711Z,-2.53
2023-02-08T03:13:29.709Z,-2.53
2023-02-08T03:14:29.687Z,-2.55
2023-02-08T03:15:29.684Z,-2.52
2023-02-08T03:16:29.743Z,-2.53
2023-02-08T03:17:29.659Z,-2.53
2023-02-08T03:18:29.670Z,-2.53
2023-02-08T03:19:29.636Z,-2.55
2023-02-08T03:20:29.615Z,-2.55
2023-02-08T03:21:29.626Z,-2.56
2023-02-08T03:22:30.554Z,-2.56
2023-02-08T03:23:29.630Z,-2.58
2023-02-08T03:24:29.603Z,-2.56
2023-02-08T03:25:29.569Z,-2.59
2023-02-08T03:26:29.548Z,-2.58
2023-02-08T03:27:29.547Z,-2.60
2023-02-08T03:28:29.541Z,-2.59
2023-02-08T03:29:29.559Z,-2.59
2023-02-08T03:30:29.568Z,-2.60
2023-02-08T03:31:29.711Z,-2.60
2023-02-08T03:32:29.489Z,-2.62
2023-02-08T03:33:29.484Z,-2.62
2023-02-08T03:34:29.479Z,-2.62
2023-02-08T03:35:29.476Z,-2.62
2023-02-08T03:36:29.439Z,-2.60
2023-02-08T03:37:29.448Z,-2.60
2023-02-08T03:38:29.433Z,-2.60
2023-02-08T03:39:29.407Z,-2.60
2023-02-08T03:40:29.388Z,-2.59
2023-02-08T03:41:29.408Z,-2.59
2023-02-08T03:42:29.376Z,-2.62
2023-02-08T03:43:29.368Z,-2.59
2023-02-08T03:44:29.351Z,-2.58
2023-02-08T03:45:29.356Z,-2.59
2023-02-08T03:46:29.328Z,-2.60
2023-02-08T03:47:29.350Z,-2.60
2023-02-08T03:48:29.321Z,-2.58
2023-02-08T03:49:29.309Z,-2.59
2023-02-08T03:50:29.289Z,-2.60
2023-02-08T03:51:29.288Z,-2.62
2023-02-08T03:52:29.266Z,-2.62
2023-02-08T03:53:29.404Z,-2.60
2023-02-08T03:54:29.248Z,-2.62
2023-02-08T03:55:29.236Z,-2.63
2023-02-08T03:56:29.223Z,-2.63
2023-02-08T03:57:29.205Z,-2.65
2023-02-08T03:58:29.194Z,-2.65
2023-02-08T03:59:29.213Z,-2.65
2023-02-08T04:00:29.176Z,-2.66
2023-02-08T04:01:29.196Z,-2.66
2023-02-08T04:02:29.224Z,-2.65
2023-02-08T04:03:29.152Z,-2.65
2023-02-08T04:04:29.133Z,-2.65
2023-02-08T04:05:29.151Z,-2.65
2023-02-08T04:06:29.102Z,-2.63
2023-02-08T04:07:29.100Z,-2.66
2023-02-08T04:08:29.104Z,-2.66
2023-02-08T04:09:29.081Z,-2.66
2023-02-08T04:10:29.080Z,-2.66
2023-02-08T04:11:29.100Z,-2.65
2023-02-08T04:12:29.040Z,-2.65
2023-02-08T04:13:29.028Z,-2.65
2023-02-08T04:14:29.049Z,-2.65
2023-02-08T04:15:29.040Z,-2.66
2023-02-08T04:16:28.989Z,-2.66
2023-02-08T04:17:28.995Z,-2.69
2023-02-08T04:18:28.981Z,-2.66
2023-02-08T04:19:28.968Z,-2.69
2023-02-08T04:20:28.968Z,-2.70
2023-02-08T04:21:28.960Z,-2.69
2023-02-08T04:22:28.924Z,-2.66
2023-02-08T04:23:28.947Z,-2.69
2023-02-08T04:24:28.907Z,-2.69
2023-02-08T04:25:28.910Z,-2.70
2023-02-08T04:26:28.911Z,-2.70
2023-02-08T04:27:28.910Z,-2.70
2023-02-08T04:28:28.856Z,-2.71
2023-02-08T04:29:28.858Z,-2.71
2023-02-08T04:30:28.895Z,-2.74
2023-02-08T04:31:29.018Z,-2.73
2023-02-08T04:32:28.841Z,-2.74
2023-02-08T04:33:28.822Z,-2.76
2023-02-08T04:34:28.815Z,-2.73
2023-02-08T04:35:28.791Z,-2.74
2023-02-08T04:36:28.783Z,-2.74
2023-02-08T04:37:28.780Z,-2.73
2023-02-08T04:38:28.761Z,-2.73
2023-02-08T04:39:28.749Z,-2.74
2023-02-08T04:40:28.759Z,-2.74
2023-02-08T04:41:28.753Z,-2.74
2023-02-08T04:42:28.725Z,-2.74
2023-02-08T04:43:28.709Z,-2.77
2023-02-08T04:44:28.696Z,-2.77
2023-02-08T04:45:28.690Z,-2.77
2023-02-08T04:46:28.710Z,-2.78
2023-02-08T04:47:28.668Z,-2.78
2023-02-08T04:48:28.643Z,-2.77
2023-02-08T04:49:28.654Z,-2.76
2023-02-08T04:50:28.650Z,-2.76
2023-02-08T04:51:28.622Z,-2.73
2023-02-08T04:52:28.601Z,-2.76
2023-02-08T04:53:28.630Z,-2.73
2023-02-08T04:54:28.607Z,-2.74
2023-02-08T04:55:28.602Z,-2.74
2023-02-08T04:56:28.611Z,-2.73
2023-02-08T04:57:28.588Z,-2.74
2023-02-08T04:58:28.560Z,-2.76
2023-02-08T04:59:28.571Z,-2.74
2023-02-08T05:00:28.568Z,-2.77
2023-02-08T05:01:28.552Z,-2.78
2023-02-08T05:02:28.502Z,-2.80
2023-02-08T05:03:28.503Z,-2.81
2023-02-08T05:04:28.473Z,-2.83
2023-02-08T05:05:28.467Z,-2.86
2023-02-08T05:06:28.469Z,-2.86
2023-02-08T05:07:28.455Z,-2.86
2023-02-08T05:08:28.442Z,-2.91
2023-02-08T05:09:28.420Z,-2.91
2023-02-08T05:10:28.395Z,-2.91
2023-02-08T05:11:28.416Z,-2.92
2023-02-08T05:12:28.381Z,-2.95
2023-02-08T05:13:28.378Z,-2.94
2023-02-08T05:14:28.356Z,-2.97
2023-02-08T05:15:28.354Z,-2.98
2023-02-08T05:16:28.347Z,-2.98
2023-02-08T05:17:28.339Z,-2.97
2023-02-08T05:18:28.324Z,-2.97
2023-02-08T05:19:28.340Z,-2.98
2023-02-08T05:20:28.281Z,-2.98
2023-02-08T05:21:28.340Z,-2.98
2023-02-08T05:22:28.282Z,-2.97
2023-02-08T05:23:28.342Z,-2.98
2023-02-08T05:24:28.293Z,-2.98
2023-02-08T05:25:28.314Z,-2.99
2023-02-08T05:26:28.342Z,-2.97
2023-02-08T05:27:28.342Z,-2.98
2023-02-08T05:28:28.361Z,-2.99
2023-02-08T05:29:28.356Z,-2.99
2023-02-08T05:30:28.331Z,-2.99
2023-02-08T05:31:28.546Z,-2.99
2023-02-08T05:32:28.369Z,-2.98
2023-02-08T05:33:28.328Z,-3.01
2023-02-08T05:34:28.201Z,-3.02
2023-02-08T05:35:28.381Z,-3.04
2023-02-08T05:36:28.369Z,-3.06
2023-02-08T05:37:28.175Z,-3.07
2023-02-08T05:38:28.130Z,-3.09
2023-02-08T05:39:28.156Z,-3.09
2023-02-08T05:40:28.148Z,-3.10
2023-02-08T05:41:28.168Z,-3.12
2023-02-08T05:42:28.172Z,-3.10
2023-02-08T05:43:28.263Z,-3.10
2023-02-08T05:44:28.186Z,-3.10
2023-02-08T05:45:28.211Z,-3.09
2023-02-08T05:46:28.266Z,-3.10
2023-02-08T05:47:28.230Z,-3.09
2023-02-08T05:48:28.233Z,-3.09
2023-02-08T05:49:28.253Z,-3.10
2023-02-08T05:50:28.220Z,-3.09
2023-02-08T05:51:28.245Z,-3.07
2023-02-08T05:52:28.232Z,-3.07
2023-02-08T05:53:28.276Z,-3.07
2023-02-08T05:54:28.202Z,-3.07
2023-02-08T05:55:28.194Z,-3.07
2023-02-08T05:56:28.147Z,-3.06
2023-02-08T05:57:31.102Z,-3.09
2023-02-08T05:58:28.167Z,-3.07
2023-02-08T05:59:28.005Z,-3.07
2023-02-08T06:00:28.043Z,-3.09
2023-02-08T06:01:28.070Z,-3.09
2023-02-08T06:02:28.161Z,-3.09
2023-02-08T06:03:28.100Z,-3.10
2023-02-08T06:04:27.866Z,-3.12
2023-02-08T06:05:27.794Z,-3.10
2023-02-08T06:06:27.777Z,-3.13
2023-02-08T06:07:27.788Z,-3.13
2023-02-08T06:08:27.754Z,-3.13
2023-02-08T06:09:27.777Z,-3.13
2023-02-08T06:10:27.745Z,-3.16
2023-02-08T06:11:27.732Z,-3.16
2023-02-08T06:12:27.721Z,-3.16
2023-02-08T06:13:27.709Z,-3.16
2023-02-08T06:14:27.689Z,-3.16
2023-02-08T06:15:27.682Z,-3.16
2023-02-08T06:16:27.776Z,-3.17
2023-02-08T06:17:34.778Z,-3.17
2023-02-08T06:18:29.282Z,-3.15
2023-02-08T06:19:27.634Z,-3.17
2023-02-08T06:20:27.642Z,-3.17
2023-02-08T06:21:27.617Z,-3.17
2023-02-08T06:22:27.592Z,-3.16
2023-02-08T06:23:27.597Z,-3.15
2023-02-08T06:24:27.575Z,-3.16
2023-02-08T06:25:27.572Z,-3.17
2023-02-08T06:26:27.608Z,-3.17
2023-02-08T06:27:27.599Z,-3.17
2023-02-08T06:28:27.603Z,-3.17
2023-02-08T06:29:27.546Z,-3.20
2023-02-08T06:30:27.521Z,-3.20
2023-02-08T06:31:27.564Z,-3.20
2023-02-08T06:32:27.589Z,-3.22
2023-02-08T06:33:27.510Z,-3.22
2023-02-08T06:34:27.477Z,-3.23
2023-02-08T06:35:27.515Z,-3.25
2023-02-08T06:36:27.462Z,-3.27
2023-02-08T06:37:27.446Z,-3.30
2023-02-08T06:38:27.440Z,-3.28
2023-02-08T06:39:27.431Z,-3.30
2023-02-08T06:40:27.406Z,-3.30
2023-02-08T06:41:27.410Z,-3.31
2023-02-08T06:42:27.381Z,-3.31
2023-02-08T06:43:27.437Z,-3.30
2023-02-08T06:44:27.360Z,-3.28
2023-02-08T06:45:27.458Z,-3.28
2023-02-08T06:46:27.339Z,-3.28
2023-02-08T06:47:27.331Z,-3.28
2023-02-08T06:48:27.330Z,-3.28
2023-02-08T06:49:27.314Z,-3.28
2023-02-08T06:50:27.280Z,-3.27
2023-02-08T06:51:27.318Z,-3.28
2023-02-08T06:52:27.274Z,-3.28
2023-02-08T06:53:27.290Z,-3.28
2023-02-08T06:54:27.238Z,-3.27
2023-02-08T06:55:27.258Z,-3.27
2023-02-08T06:56:27.238Z,-3.28
2023-02-08T06:57:27.226Z,-3.25
2023-02-08T06:58:27.231Z,-3.27
2023-02-08T06:59:27.200Z,-3.25
2023-02-08T07:00:27.185Z,-3.25
2023-02-08T07:01:27.271Z,-3.22
2023-02-08T07:02:27.216Z,-3.23
2023-02-08T07:03:27.167Z,-3.22
2023-02-08T07:04:27.147Z,-3.23
2023-02-08T07:05:27.128Z,-3.22
2023-02-08T07:06:27.155Z,-3.23
2023-02-08T07:07:27.107Z,-3.22
2023-02-08T07:08:27.123Z,-3.23
2023-02-08T07:09:27.075Z,-3.22
2023-02-08T07:10:27.088Z,-3.20
2023-02-08T07:11:27.061Z,-3.20
2023-02-08T07:12:27.055Z,-3.19
2023-02-08T07:13:27.053Z,-3.20
2023-02-08T07:14:27.088Z,-3.17
2023-02-08T07:15:27.032Z,-3.19
2023-02-08T07:16:27.139Z,-3.17
2023-02-08T07:17:27.009Z,-3.19
2023-02-08T07:18:27.048Z,-3.19
2023-02-08T07:19:27.010Z,-3.17
2023-02-08T07:20:26.964Z,-3.17
2023-02-08T07:21:26.936Z,-3.16
2023-02-08T07:22:26.952Z,-3.17
2023-02-08T07:23:26.930Z,-3.16
2023-02-08T07:24:26.929Z,-3.16
2023-02-08T07:25:26.919Z,-3.15
2023-02-08T07:26:26.933Z,-3.16
2023-02-08T07:27:26.893Z,-3.15
2023-02-08T07:28:26.899Z,-3.13
2023-02-08T07:29:26.879Z,-3.13
2023-02-08T07:30:26.864Z,-3.13
2023-02-08T07:31:26.877Z,-3.12
2023-02-08T07:32:26.840Z,-3.09
2023-02-08T07:33:26.825Z,-3.09
2023-02-08T07:34:26.813Z,-3.09
2023-02-08T07:35:26.824Z,-3.06
2023-02-08T07:36:26.796Z,-3.02
2023-02-08T07:37:26.777Z,-3.02
2023-02-08T07:38:26.788Z,-3.02
2023-02-08T07:39:26.760Z,-3.01
2023-02-08T07:40:26.755Z,-2.99
2023-02-08T07:41:26.762Z,-2.99
2023-02-08T07:42:26.738Z,-2.98
2023-02-08T07:43:27.318Z,-2.95
2023-02-08T07:44:26.730Z,-2.95
2023-02-08T07:45:26.686Z,-2.94
2023-02-08T07:46:26.742Z,-2.94
2023-02-08T07:47:26.891Z,-2.91
2023-02-08T07:48:26.671Z,-2.89
2023-02-08T07:49:26.668Z,-2.89
2023-02-08T07:50:26.639Z,-2.88
2023-02-08T07:51:26.641Z,-2.86
2023-02-08T07:52:26.636Z,-2.84
2023-02-08T07:53:26.609Z,-2.84
2023-02-08T07:54:26.629Z,-2.80
2023-02-08T07:55:26.601Z,-2.80
2023-02-08T07:56:26.589Z,-2.80
2023-02-08T07:57:26.554Z,-2.78
2023-02-08T07:58:26.567Z,-2.76
2023-02-08T07:59:26.561Z,-2.76
2023-02-08T08:00:26.602Z,-2.76
2023-02-08T08:01:26.589Z,-2.73
2023-02-08T08:02:26.507Z,-2.71
2023-02-08T08:03:26.499Z,-2.69
2023-02-08T08:04:26.508Z,-2.66
2023-02-08T08:05:26.498Z,-2.63
2023-02-08T08:06:26.473Z,-2.62
2023-02-08T08:07:26.455Z,-2.60
2023-02-08T08:08:26.455Z,-2.58
2023-02-08T08:09:26.433Z,-2.55
2023-02-08T08:10:26.483Z,-2.53
2023-02-08T08:11:26.428Z,-2.52
2023-02-08T08:12:26.415Z,-2.50
2023-02-08T08:13:26.385Z,-2.47
2023-02-08T08:14:26.398Z,-2.44
2023-02-08T08:15:26.377Z,-2.44
2023-02-08T08:16:26.466Z,-2.41
2023-02-08T08:17:28.388Z,-2.40
2023-02-08T08:18:26.339Z,-2.37
2023-02-08T08:19:26.323Z,-2.35
2023-02-08T08:20:26.315Z,-2.34
2023-02-08T08:21:26.292Z,-2.32
2023-02-08T08:22:26.327Z,-2.28
2023-02-08T08:23:26.305Z,-2.26
2023-02-08T08:24:26.275Z,-2.22
2023-02-08T08:25:26.256Z,-2.21
2023-02-08T08:26:26.278Z,-2.18
2023-02-08T08:27:26.257Z,-2.16
2023-02-08T08:28:26.282Z,-2.13
2023-02-08T08:29:26.215Z,-2.07
2023-02-08T08:30:26.227Z,-2.05
2023-02-08T08:31:26.361Z,-2.01
2023-02-08T08:32:26.237Z,-1.98
2023-02-08T08:33:26.166Z,-1.97
2023-02-08T08:34:26.164Z,-1.92
2023-02-08T08:35:26.144Z,-1.87
2023-02-08T08:36:26.140Z,-1.83
2023-02-08T08:37:26.157Z,-1.80
2023-02-08T08:38:26.124Z,-1.77
2023-02-08T08:39:26.093Z,-1.74
2023-02-08T08:40:26.166Z,-1.71
2023-02-08T08:41:26.080Z,-1.65
2023-02-08T08:42:26.084Z,-1.61
2023-02-08T08:43:26.064Z,-1.58
2023-02-08T08:44:26.072Z,-1.50
2023-02-08T08:45:26.023Z,-1.44
2023-02-08T08:46:26.075Z,-1.40
2023-02-08T08:47:26.472Z,-1.35
2023-02-08T08:48:26.026Z,-1.29
2023-02-08T08:49:26.031Z,-1.26
2023-02-08T08:50:25.980Z,-1.20
2023-02-08T08:51:25.984Z,-1.17
2023-02-08T08:52:25.960Z,-1.11
2023-02-08T08:53:25.952Z,-1.07
2023-02-08T08:54:25.980Z,-1.04
2023-02-08T08:55:25.926Z,-0.97
2023-02-08T08:56:25.952Z,-0.94
2023-02-08T08:57:25.895Z,-0.91
2023-02-08T08:58:25.923Z,-0.89
2023-02-08T08:59:25.896Z,-0.85
2023-02-08T09:00:25.873Z,-0.82
2023-02-08T09:01:25.874Z,-0.77
2023-02-08T09:02:25.859Z,-0.72
2023-02-08T09:03:25.911Z,-0.70
2023-02-08T09:04:25.830Z,-0.61
2023-02-08T09:05:25.806Z,-0.54
2023-02-08T09:06:25.797Z,-0.47
2023-02-08T09:07:25.789Z,-0.39
2023-02-08T09:08:25.788Z,-0.34
2023-02-08T09:09:25.757Z,-0.28
2023-02-08T09:10:25.761Z,-0.21
2023-02-08T09:11:25.751Z,-0.17
2023-02-08T09:12:25.743Z,-0.13
2023-02-08T09:13:26.027Z,-0.08
2023-02-08T09:14:25.747Z,-0.07
2023-02-08T09:15:25.697Z,-0.06
2023-02-08T09:16:25.745Z,-0.02
2023-02-08T09:17:25.700Z,0.00
2023-02-08T09:18:25.676Z,0.03
2023-02-08T09:19:25.663Z,0.05
2023-02-08T09:20:25.661Z,0.08
2023-02-08T09:21:25.634Z,0.11
2023-02-08T09:22:25.644Z,0.16
2023-02-08T09:23:25.602Z,0.19
2023-02-08T09:24:25.628Z,0.22
2023-02-08T09:25:25.587Z,0.26
2023-02-08T09:26:25.582Z,0.31
2023-02-08T09:27:25.583Z,0.34
2023-02-08T09:28:25.577Z,0.39
2023-02-08T09:29:25.562Z,0.44
2023-02-08T09:30:25.547Z,0.55
2023-02-08T09:31:25.648Z,0.62
2023-02-08T09:32:25.530Z,0.70
2023-02-08T09:33:25.507Z,0.84
2023-02-08T09:34:25.527Z,0.92
2023-02-08T09:35:25.474Z,1.05
2023-02-08T09:36:25.474Z,1.17
2023-02-08T09:37:25.464Z,1.35
2023-02-08T09:38:25.581Z,1.55
2023-02-08T09:39:25.429Z,1.70
2023-02-08T09:40:25.565Z,1.85
2023-02-08T09:41:25.415Z,2.00
2023-02-08T09:42:25.429Z,2.17
2023-02-08T09:43:25.394Z,2.29
2023-02-08T09:44:25.399Z,2.49
2023-02-08T09:45:25.400Z,2.74
2023-02-08T09:46:25.397Z,2.89
2023-02-08T09:47:25.343Z,3.05
2023-02-08T09:48:25.340Z,3.25
2023-02-08T09:49:25.331Z,3.32
2023-02-08T09:50:25.329Z,3.44
2023-02-08T09:51:25.319Z,3.63
2023-02-08T09:52:25.317Z,3.76
2023-02-08T09:53:25.279Z,3.87
2023-02-08T09:54:25.265Z,3.86
2023-02-08T09:55:25.285Z,3.94
2023-02-08T09:56:25.268Z,4.05
2023-02-08T09:57:25.233Z,4.14
2023-02-08T09:58:25.238Z,4.23
2023-02-08T09:59:25.225Z,4.20
2023-02-08T10:00:25.212Z,4.22
2023-02-08T10:01:25.205Z,4.23
2023-02-08T10:02:25.196Z,4.40
2023-02-08T10:03:25.203Z,4.55
2023-02-08T10:04:25.177Z,4.67
2023-02-08T10:05:25.155Z,4.77
2023-02-08T10:06:25.153Z,4.68
2023-02-08T10:07:25.121Z,4.71
2023-02-08T10:08:34.503Z,4.59
2023-02-08T10:09:26.126Z,4.52
2023-02-08T10:10:25.092Z,4.48
2023-02-08T10:11:25.106Z,4.48
2023-02-08T10:12:25.085Z,4.59
2023-02-08T10:13:39.616Z,4.70
2023-02-08T10:14:26.074Z,4.63
2023-02-08T10:15:25.034Z,4.62
2023-02-08T10:16:25.112Z,4.55
2023-02-08T10:17:25.024Z,4.60
2023-02-08T10:18:25.043Z,4.87
2023-02-08T10:19:25.033Z,4.97
2023-02-08T10:20:24.986Z,5.12
2023-02-08T10:21:25.002Z,5.08
2023-02-08T10:22:24.975Z,5.17
2023-02-08T10:23:24.992Z,5.30
2023-02-08T10:24:24.955Z,5.47
2023-02-08T10:25:24.941Z,5.48
2023-02-08T10:26:24.931Z,5.64
2023-02-08T10:27:24.934Z,5.65
2023-02-08T10:28:24.974Z,5.62
2023-02-08T10:29:24.912Z,5.62
2023-02-08T10:30:24.957Z,5.66
2023-02-08T10:31:24.944Z,5.79
2023-02-08T10:32:24.860Z,5.83
2023-02-08T10:33:24.837Z,5.79
2023-02-08T10:34:24.864Z,5.80
2023-02-08T10:35:24.814Z,5.86
2023-02-08T10:36:24.833Z,5.76
2023-02-08T10:37:24.796Z,5.68
2023-02-08T10:38:25.167Z,5.66
2023-02-08T10:39:24.774Z,5.64
2023-02-08T10:40:24.765Z,5.56
2023-02-08T10:41:24.755Z,5.59
2023-02-08T10:42:24.741Z,5.54
2023-02-08T10:43:24.753Z,5.51
2023-02-08T10:44:24.747Z,5.41
2023-02-08T10:45:25.062Z,5.43
2023-02-08T10:46:24.708Z,5.33
2023-02-08T10:47:24.673Z,5.35
2023-02-08T10:48:24.704Z,5.38
2023-02-08T10:49:24.660Z,5.46
2023-02-08T10:50:24.702Z,5.51
2023-02-08T10:51:24.636Z,5.61
2023-02-08T10:52:24.638Z,5.69
2023-02-08T10:53:24.666Z,5.76
2023-02-08T10:54:24.602Z,5.86
2023-02-08T10:55:24.591Z,5.89
2023-02-08T10:56:25.178Z,5.93
2023-02-08T10:57:24.566Z,5.91
2023-02-08T10:58:24.642Z,5.93
2023-02-08T10:59:24.540Z,5.89
2023-02-08T11:00:24.597Z,5.89
2023-02-08T11:01:24.558Z,5.86
2023-02-08T11:02:24.522Z,5.84
2023-02-08T11:03:24.502Z,5.89
2023-02-08T11:04:24.554Z,5.99
2023-02-08T11:05:24.513Z,6.07
2023-02-08T11:06:24.485Z,6.12
2023-02-08T11:07:24.443Z,6.20
2023-02-08T11:08:24.457Z,6.17
2023-02-08T11:09:24.454Z,6.20
2023-02-08T11:10:24.423Z,6.07
2023-02-08T11:11:24.389Z,6.07
2023-02-08T11:12:24.392Z,6.14
2023-02-08T11:13:24.377Z,6.27
2023-02-08T11:14:26.037Z,6.38
2023-02-08T11:15:25.210Z,6.44
2023-02-08T11:16:24.417Z,6.38
2023-02-08T11:17:24.375Z,6.28
2023-02-08T11:18:24.328Z,6.24
2023-02-08T11:19:24.317Z,6.27
2023-02-08T11:20:24.339Z,6.28
2023-02-08T11:21:24.298Z,6.36
2023-02-08T11:22:24.289Z,6.45
2023-02-08T11:23:24.324Z,6.51
2023-02-08T11:24:24.277Z,6.51
2023-02-08T11:25:24.275Z,6.49
2023-02-08T11:26:24.236Z,6.46
2023-02-08T11:27:24.369Z,6.39
2023-02-08T11:28:24.255Z,6.36
2023-02-08T11:29:24.215Z,6.39
2023-02-08T11:30:24.243Z,6.33
2023-02-08T11:31:24.205Z,6.38
2023-02-08T11:32:24.188Z,6.48
2023-02-08T11:33:24.283Z,6.56
2023-02-08T11:34:24.162Z,6.54
2023-02-08T11:35:24.160Z,6.54
2023-02-08T11:36:24.124Z,6.52
2023-02-08T11:37:24.132Z,6.52
2023-02-08T11:38:24.126Z,6.51
2023-02-08T11:39:24.132Z,6.51
2023-02-08T11:40:24.078Z,6.49
2023-02-08T11:41:24.085Z,6.44
2023-02-08T11:42:24.108Z,6.33
2023-02-08T11:43:24.049Z,6.27
2023-02-08T11:44:24.042Z,6.28
2023-02-08T11:45:24.044Z,6.31
2023-02-08T11:46:24.054Z,6.35
2023-02-08T11:47:24.030Z,6.41
2023-02-08T11:48:24.005Z,6.49
2023-02-08T11:49:24.001Z,6.51
2023-02-08T11:50:23.971Z,6.54
2023-02-08T11:51:23.969Z,6.59
2023-02-08T11:52:23.953Z,6.59
2023-02-08T11:53:23.970Z,6.60
2023-02-08T11:54:23.926Z,6.57
2023-02-08T11:55:23.944Z,6.57
2023-02-08T11:56:23.933Z,6.59
2023-02-08T11:57:23.892Z,6.60
2023-02-08T11:58:23.893Z,6.64
2023-02-08T11:59:23.892Z,6.69
2023-02-08T12:00:23.844Z,6.69
2023-02-08T12:01:23.882Z,6.69
2023-02-08T12:02:23.846Z,6.74
2023-02-08T12:03:23.858Z,6.78
2023-02-08T12:04:23.815Z,6.78
2023-02-08T12:05:23.854Z,6.82
2023-02-08T12:06:23.791Z,6.84
2023-02-08T12:07:23.792Z,6.88
2023-02-08T12:08:30.842Z,6.88
2023-02-08T12:09:23.750Z,6.85
2023-02-08T12:10:23.763Z,6.85
2023-02-08T12:11:23.732Z,6.85
2023-02-08T12:12:23.711Z,6.84
2023-02-08T12:13:23.720Z,6.89
2023-02-08T12:14:23.691Z,6.96
2023-02-08T12:15:23.713Z,7.06
2023-02-08T12:16:23.753Z,7.25
2023-02-08T12:17:23.697Z,7.29
2023-02-08T12:18:23.641Z,7.31
2023-02-08T12:19:23.683Z,7.35
2023-02-08T12:20:23.618Z,7.47
2023-02-08T12:21:23.651Z,7.47
2023-02-08T12:22:23.600Z,7.54
2023-02-08T12:23:23.650Z,7.50
2023-02-08T12:24:23.671Z,7.56
2023-02-08T12:25:23.980Z,7.69
2023-02-08T12:26:23.757Z,7.79
2023-02-08T12:27:23.642Z,7.85
2023-02-08T12:28:23.706Z,7.88
2023-02-08T12:29:23.752Z,7.88
2023-02-08T12:30:23.737Z,7.85
2023-02-08T12:31:23.849Z,7.79
2023-02-08T12:32:23.732Z,7.82
2023-02-08T12:33:24.129Z,7.82
2023-02-08T12:34:23.678Z,7.85
2023-02-08T12:35:37.023Z,7.91
2023-02-08T12:36:24.494Z,7.87
2023-02-08T12:37:23.672Z,7.82
2023-02-08T12:38:23.418Z,7.76
2023-02-08T12:39:25.728Z,7.77
2023-02-08T12:40:23.395Z,7.76
2023-02-08T12:41:23.397Z,7.75
2023-02-08T12:42:23.387Z,7.83
2023-02-08T12:43:23.368Z,8.00
2023-02-08T12:44:23.375Z,8.00
2023-02-08T12:45:23.695Z,7.95
2023-02-08T12:46:23.344Z,8.00
2023-02-08T12:47:23.924Z,8.01
2023-02-08T12:48:23.315Z,8.03
2023-02-08T12:49:23.305Z,8.12
2023-02-08T12:50:23.274Z,8.13
2023-02-08T12:51:23.274Z,8.19
2023-02-08T12:52:23.267Z,8.13
2023-02-08T12:53:23.266Z,8.12
2023-02-08T12:54:23.233Z,8.15
2023-02-08T12:55:23.234Z,8.20
2023-02-08T12:56:23.214Z,8.18
2023-02-08T12:57:23.206Z,8.19
2023-02-08T12:58:23.233Z,8.31
2023-02-08T12:59:23.185Z,8.30